createdAt,value
2023-04-02T00:01:38.323Z,4.80
2023-04-02T00:07:28.461Z,4.55
2023-04-02T00:13:06.618Z,4.22
2023-04-02T00:18:28.511Z,3.97
2023-04-02T00:23:49.779Z,4.10
2023-04-02T00:29:14.558Z,4.28
2023-04-02T00:34:38.890Z,3.92
2023-04-02T00:40:20.955Z,4.03
2023-04-02T00:45:44.214Z,4.20
2023-04-02T00:51:19.968Z,4.32
2023-04-02T00:56:45.701Z,3.97
2023-04-02T01:02:16.025Z,4.05
2023-04-02T01:08:07.518Z,3.90
2023-04-02T01:14:32.804Z,4.32
2023-04-02T01:20:22.301Z,4.35
2023-04-02T01:26:22.750Z,3.50
2023-04-02T01:31:46.656Z,3.40
2023-04-02T01:37:27.413Z,4.38
2023-04-02T01:43:09.380Z,4.32
2023-04-02T01:48:31.715Z,3.70
2023-04-02T01:53:53.879Z,3.58
2023-04-02T01:59:19.646Z,2.67
2023-04-02T02:04:42.110Z,4.07
2023-04-02T02:10:04.530Z,4.05
2023-04-02T02:15:26.107Z,2.95
2023-04-02T02:20:47.878Z,3.03
2023-04-02T02:26:09.314Z,3.50
2023-04-02T02:31:32.912Z,3.15
2023-04-02T02:37:07.446Z,3.13
2023-04-02T02:42:36.699Z,2.80
2023-04-02T02:47:59.646Z,3.05
2023-04-02T02:53:24.087Z,2.83
2023-04-02T02:58:48.135Z,2.50
2023-04-02T03:04:22.650Z,2.90
2023-04-02T03:09:59.509Z,2.42
2023-04-02T03:15:36.072Z,3.03
2023-04-02T03:21:22.082Z,2.05
2023-04-02T03:26:54.617Z,2.28
2023-04-02T03:32:33.841Z,2.25
2023-04-02T03:38:21.756Z,2.20
2023-04-02T03:43:55.076Z,1.90
2023-04-02T03:49:55.990Z,2.40
2023-04-02T03:55:19.514Z,1.90
2023-04-02T04:01:31.667Z,1.95
2023-04-02T04:06:54.265Z,1.80
2023-04-02T04:12:26.774Z,2.25
2023-04-02T04:18:02.804Z,1.70
2023-04-02T04:23:33.011Z,1.67
2023-04-02T04:29:34.553Z,1.45
2023-04-02T04:35:06.493Z,1.40
2023-04-02T04:40:42.149Z,1.55
2023-04-02T04:46:13.730Z,1.60
2023-04-02T04:52:28.107Z,1.65
2023-04-02T04:57:51.370Z,1.30
2023-04-02T05:03:21.820Z,1.23
2023-04-02T05:08:48.500Z,1.50
2023-04-02T05:14:42.524Z,1.65
2023-04-02T05:20:40.440Z,2.47
2023-04-02T05:26:17.197Z,1.30
2023-04-02T05:32:09.413Z,1.73
2023-04-02T05:37:31.979Z,1.75
2023-04-02T05:42:54.689Z,1.40
2023-04-02T05:48:21.698Z,1.48
2023-04-02T05:54:03.414Z,1.25
2023-04-02T05:59:34.408Z,1.52
2023-04-02T06:05:24.201Z,1.17
2023-04-02T06:11:08.398Z,1.65
2023-04-02T06:16:31.429Z,1.27
2023-04-02T06:22:07.766Z,1.35
2023-04-02T06:27:29.990Z,1.20
2023-04-02T06:32:51.393Z,1.10
2023-04-02T06:38:22.446Z,1.30
2023-04-02T06:43:59.812Z,1.27
2023-04-02T06:50:12.969Z,0.90
